Time;durP1;ratioP1;P1;durP2;ratioP2;P2;SDS_P1;SDS_P2;PMS_P1;PMS_P2;Temp;Humidity;BMP_temperature;BMP_pressure;BME280_temperature;BME280_humidity;BME280_pressure;Samples;Min_cycle;Max_cycle;Signal;HPM_P1;HPM_P2
2023/03/03 00:00:03;;;;;;;;;;;;;;;25.10;37.38;94243.13;4973873;28;9750;-56
2023/03/03 00:02:29;;;;;;;;;;;;;;;25.09;36.84;94244.38;4968182;28;9356;-56
2023/03/03 00:04:57;;;;;;;;;;;;;;;25.08;37.42;94238.13;4985390;28;7000;-55
2023/03/03 00:07:23;;;;;;;;;;;;;;;25.08;37.10;94240.13;4973203;28;9146;-55
2023/03/03 00:09:52;;;;;;;;;;;;;;;25.08;37.94;94240.13;4966152;28;8744;-55
2023/03/03 00:12:29;;;;;;;;;;;;;;;25.08;37.48;94235.38;4974913;28;9325;-56
2023/03/03 00:14:57;;;;;;;;;;;;;;;25.07;37.89;94233.13;4970690;28;8760;-55
2023/03/03 00:17:32;;;;;;;;;;;;;;;25.06;37.87;94237.88;4985374;28;9187;-55
2023/03/03 00:19:58;;;;;;;;;;;;;;;25.05;37.32;94238.41;4958633;28;9375;-56
2023/03/03 00:22:39;;;;;;;;;;;;;;;25.06;37.29;94242.63;4972253;28;7100;-55
2023/03/03 00:25:28;;;;;;;;;;;;;;;25.07;37.27;94241.41;4972927;28;7295;-56
2023/03/03 00:28:40;;;;;;;;;;;;;;;25.04;37.86;94234.91;4970511;28;9323;-56
2023/03/03 00:31:17;;;;;;;;;;;;;;;25.04;37.60;94237.66;4963318;28;6995;-56
2023/03/03 00:33:53;;;;;;;;;;;;;;;25.00;37.28;94228.94;4955373;28;9642;-56
2023/03/03 00:36:40;;;;;;;;;;;;;;;25.04;37.20;94234.16;4983113;28;7262;-56
2023/03/03 00:39:18;;;;;;;;;;;;;;;25.04;37.54;94236.91;4954534;28;7255;-55
2023/03/03 00:41:44;;;;;;;;;;;;;;;25.05;37.88;94236.41;4967212;28;9073;-56
2023/03/03 00:44:35;;;;;;;;;;;;;;;25.05;38.10;94238.41;4958055;28;7664;-55
2023/03/03 00:47:27;;;;;;;;;;;;;;;25.04;37.17;94231.41;4979918;28;9259;-56
2023/03/03 00:50:35;;;;;;;;;;;;;;;25.04;37.16;94229.41;4981904;28;7298;-56
2023/03/03 00:53:10;;;;;;;;;;;;;;;25.02;37.36;94228.41;4965157;28;9195;-56
2023/03/03 00:55:52;;;;;;;;;;;;;;;25.02;37.34;94228.41;4968001;28;7246;-56
2023/03/03 00:58:31;;;;;;;;;;;;;;;25.02;37.86;94225.66;4975190;28;9157;-56
2023/03/03 01:01:06;;;;;;;;;;;;;;;25.03;37.23;94221.66;4947493;28;8982;-56
2023/03/03 01:04:11;;;;;;;;;;;;;;;25.02;37.36;94229.16;4972707;28;7043;-56
2023/03/03 01:06:46;;;;;;;;;;;;;;;25.02;37.29;94218.16;4883860;29;9054;-55
2023/03/03 01:09:42;;;;;;;;;;;;;;;25.03;37.25;94227.91;4874181;29;7122;-55
2023/03/03 01:12:17;;;;;;;;;;;;;;;25.02;37.92;94225.66;4892861;29;7066;-56
2023/03/03 01:15:17;;;;;;;;;;;;;;;25.03;38.01;94222.41;4881866;29;7018;-55
2023/03/03 01:17:54;;;;;;;;;;;;;;;25.04;37.25;94228.66;4896777;29;7972;-55
2023/03/03 01:20:37;;;;;;;;;;;;;;;25.05;37.33;94224.66;4896065;29;7331;-55
2023/03/03 01:23:03;;;;;;;;;;;;;;;25.03;37.81;94222.41;4895073;29;9102;-55
2023/03/03 01:25:58;;;;;;;;;;;;;;;25.04;38.04;94223.16;4874138;29;9171;-55
2023/03/03 01:28:25;;;;;;;;;;;;;;;25.04;37.96;94221.16;4810492;29;7359;-55
2023/03/03 01:31:23;;;;;;;;;;;;;;;25.04;37.32;94221.16;4834296;29;7352;-55
2023/03/03 01:33:49;;;;;;;;;;;;;;;25.05;37.65;94219.91;4835559;29;7243;-55
2023/03/03 01:36:53;;;;;;;;;;;;;;;25.05;37.10;94224.66;4852247;29;8908;-56
2023/03/03 01:39:19;;;;;;;;;;;;;;;25.03;37.70;94213.41;4827272;29;8540;-56
2023/03/03 01:41:55;;;;;;;;;;;;;;;25.05;37.05;94213.66;4825857;29;8664;-56
2023/03/03 01:44:33;;;;;;;;;;;;;;;25.04;37.20;94212.13;4836965;29;9380;-56
2023/03/03 01:47:32;;;;;;;;;;;;;;;25.02;37.34;94209.91;4839861;29;7355;-56
2023/03/03 01:50:05;;;;;;;;;;;;;;;25.04;38.01;94210.13;4856424;29;7261;-55
2023/03/03 01:52:47;;;;;;;;;;;;;;;25.05;37.73;94213.66;4843937;29;7369;-56
2023/03/03 01:55:32;;;;;;;;;;;;;;;25.03;37.53;94208.66;4914995;29;8986;-56
2023/03/03 01:58:09;;;;;;;;;;;;;;;25.04;38.04;94210.13;4931279;29;8742;-56
2023/03/03 02:01:03;;;;;;;;;;;;;;;25.05;37.50;94211.66;4924415;29;9024;-56
2023/03/03 02:04:02;;;;;;;;;;;;;;;25.04;37.12;94204.63;4917529;29;8597;-56
2023/03/03 02:06:37;;;;;;;;;;;;;;;25.05;37.66;94202.63;4922562;29;7255;-55
2023/03/03 02:09:33;;;;;;;;;;;;;;;25.03;38.10;94200.41;4928045;29;7106;-56
2023/03/03 02:12:31;;;;;;;;;;;;;;;25.04;37.24;94201.13;4928017;28;7360;-55
2023/03/03 02:14:58;;;;;;;;;;;;;;;25.02;37.72;94192.63;4935053;29;7098;-56
2023/03/03 02:17:25;;;;;;;;;;;;;;;25.03;37.93;94205.91;4951003;28;7119;-56
2023/03/03 02:20:19;;;;;;;;;;;;;;;25.03;37.06;94200.41;4943551;28;7354;-55
2023/03/03 02:26:40;;;;;;;;;;;;;;;25.04;37.30;94212.13;4946726;28;9113;-56
2023/03/03 02:29:08;;;;;;;;;;;;;;;25.02;37.10;94204.41;4962534;28;7215;-56
2023/03/03 02:31:37;;;;;;;;;;;;;;;25.03;37.84;94205.16;4946572;28;7021;-56
2023/03/03 02:34:03;;;;;;;;;;;;;;;25.05;37.27;94208.13;4954665;28;9012;-56
2023/03/03 02:36:59;;;;;;;;;;;;;;;25.03;38.13;94205.16;4935883;28;8673;-55
2023/03/03 02:39:28;;;;;;;;;;;;;;;25.03;37.71;94203.16;4906305;29;7274;-55
2023/03/03 02:42:00;;;;;;;;;;;;;;;25.04;38.07;94210.13;4932345;28;9070;-56
2023/03/03 02:44:31;;;;;;;;;;;;;;;25.03;38.00;94207.91;4940280;28;9037;-56
2023/03/03 02:46:58;;;;;;;;;;;;;;;25.03;37.41;94200.41;4949679;28;8707;-56
2023/03/03 02:49:27;;;;;;;;;;;;;;;25.02;37.27;94207.16;4946620;28;7655;-56
2023/03/03 02:51:54;;;;;;;;;;;;;;;25.04;37.45;94206.63;4944742;28;9177;-56
2023/03/03 02:54:25;;;;;;;;;;;;;;;25.02;37.13;94204.41;4933571;29;7303;-56
2023/03/03 02:56:52;;;;;;;;;;;;;;;25.02;37.46;94209.91;4942475;29;8294;-55
2023/03/03 02:59:38;;;;;;;;;;;;;;;25.02;38.07;94201.66;4941536;29;9248;-55
2023/03/03 03:02:26;;;;;;;;;;;;;;;25.04;37.14;94209.38;4944966;29;7252;-55
2023/03/03 03:05:04;;;;;;;;;;;;;;;25.03;37.23;94213.41;4936925;29;9134;-56
2023/03/03 03:07:40;;;;;;;;;;;;;;;25.03;37.50;94205.16;4940141;29;7061;-56
2023/03/03 03:10:11;;;;;;;;;;;;;;;25.04;37.72;94206.63;4943401;29;7208;-55
2023/03/03 03:12:37;;;;;;;;;;;;;;;25.03;37.03;94208.66;4943147;29;9486;-55
2023/03/03 03:15:11;;;;;;;;;;;;;;;25.04;37.56;94206.63;4942215;28;8780;-56
2023/03/03 03:17:38;;;;;;;;;;;;;;;25.03;37.10;94205.91;4984627;28;7049;-55
2023/03/03 03:20:17;;;;;;;;;;;;;;;25.03;37.21;94216.16;4963385;28;7206;-55
2023/03/03 03:22:44;;;;;;;;;;;;;;;25.02;37.98;94209.16;4978316;28;9422;-55
2023/03/03 03:25:10;;;;;;;;;;;;;;;25.02;38.16;94206.41;4967082;28;8623;-56
2023/03/03 03:27:42;;;;;;;;;;;;;;;25.01;37.36;94219.41;4972350;28;8226;-56
2023/03/03 03:30:09;;;;;;;;;;;;;;;25.02;37.47;94206.41;4970707;28;9026;-56
2023/03/03 03:32:38;;;;;;;;;;;;;;;25.02;37.22;94212.66;4953955;28;9178;-56
2023/03/03 03:35:13;;;;;;;;;;;;;;;25.00;37.41;94208.91;4963218;28;8072;-55
2023/03/03 03:37:39;;;;;;;;;;;;;;;25.02;37.48;94209.16;4960304;28;7242;-56
2023/03/03 03:40:05;;;;;;;;;;;;;;;25.03;37.74;94213.41;4979170;28;9643;-55
2023/03/03 03:42:32;;;;;;;;;;;;;;;25.02;37.41;94209.91;4982503;28;7112;-56
2023/03/03 03:44:58;;;;;;;;;;;;;;;25.03;37.99;94213.41;4995748;28;9010;-56
2023/03/03 03:47:27;;;;;;;;;;;;;;;25.01;37.91;94211.16;4954777;28;8740;-56
2023/03/03 03:49:53;;;;;;;;;;;;;;;24.98;37.48;94201.19;4987218;28;7305;-56
2023/03/03 03:52:19;;;;;;;;;;;;;;;25.01;37.99;94202.16;4986638;28;7227;-55
2023/03/03 03:54:48;;;;;;;;;;;;;;;24.96;37.65;94192.69;4966503;28;7278;-55
2023/03/03 03:57:14;;;;;;;;;;;;;;;25.03;37.12;94199.66;4970952;28;9258;-56
2023/03/03 03:59:40;;;;;;;;;;;;;;;25.02;37.78;94198.16;4963375;28;7640;-56
2023/03/03 04:02:07;;;;;;;;;;;;;;;25.02;38.01;94192.63;4969759;28;7177;-56
2023/03/03 04:04:36;;;;;;;;;;;;;;;25.02;37.42;94192.63;5001150;28;9026;-56
2023/03/03 04:07:02;;;;;;;;;;;;;;;25.01;37.55;94194.63;4974379;28;7309;-56
2023/03/03 04:09:37;;;;;;;;;;;;;;;25.02;37.47;94195.41;4972675;28;9060;-55
2023/03/03 04:12:11;;;;;;;;;;;;;;;25.00;37.71;94201.41;4978072;28;7259;-56
2023/03/03 04:14:40;;;;;;;;;;;;;;;25.03;37.10;94188.66;4985910;28;9126;-56
2023/03/03 04:17:26;;;;;;;;;;;;;;;25.03;37.98;94200.41;4975757;28;9162;-56
2023/03/03 04:20:01;;;;;;;;;;;;;;;25.02;37.58;94192.63;4974312;28;7902;-55
2023/03/03 04:22:29;;;;;;;;;;;;;;;25.02;37.52;94192.63;4967216;28;7289;-55
2023/03/03 04:24:54;;;;;;;;;;;;;;;25.02;37.36;94196.16;4973187;28;9321;-56
2023/03/03 04:27:20;;;;;;;;;;;;;;;25.01;37.77;94199.41;4956552;28;8198;-56
2023/03/03 04:29:47;;;;;;;;;;;;;;;25.04;37.30;94199.13;4980614;28;7240;-56
2023/03/03 04:32:14;;;;;;;;;;;;;;;25.00;37.72;94201.41;4971943;28;8925;-55
2023/03/03 04:34:39;;;;;;;;;;;;;;;25.02;38.17;94198.91;4962097;28;9342;-55
2023/03/03 04:37:08;;;;;;;;;;;;;;;25.01;37.92;94194.63;4991575;28;10468;-55
2023/03/03 04:39:35;;;;;;;;;;;;;;;25.03;38.18;94199.66;4971548;28;7225;-56
2023/03/03 04:42:02;;;;;;;;;;;;;;;24.98;37.39;94192.19;4966417;28;9471;-55
2023/03/03 04:44:28;;;;;;;;;;;;;;;25.02;37.94;94198.16;4960013;28;7200;-55
2023/03/03 04:47:03;;;;;;;;;;;;;;;25.02;37.79;94196.16;4965813;28;9358;-55
2023/03/03 04:49:29;;;;;;;;;;;;;;;25.01;37.70;94202.16;4972199;28;9019;-56
2023/03/03 04:51:57;;;;;;;;;;;;;;;25.01;37.15;94208.41;4976797;28;7365;-55
2023/03/03 04:54:28;;;;;;;;;;;;;;;25.01;38.01;94202.16;4969692;28;7242;-55
2023/03/03 04:57:00;;;;;;;;;;;;;;;24.99;37.59;94208.16;4970790;28;7226;-55
2023/03/03 04:59:26;;;;;;;;;;;;;;;25.01;38.08;94208.41;4965251;28;7590;-55
2023/03/03 05:01:53;;;;;;;;;;;;;;;25.00;37.79;94206.16;4970927;28;7197;-55
2023/03/03 05:04:19;;;;;;;;;;;;;;;25.01;37.63;94202.91;4964979;28;9063;-55
2023/03/03 05:06:45;;;;;;;;;;;;;;;25.02;37.52;94203.66;4966326;28;7257;-55
2023/03/03 05:09:14;;;;;;;;;;;;;;;25.03;37.46;94205.16;4986277;28;8565;-56
2023/03/03 05:11:51;;;;;;;;;;;;;;;25.02;37.46;94220.91;4968778;28;7362;-56
2023/03/03 05:14:18;;;;;;;;;;;;;;;25.00;37.79;94217.94;4974131;28;9530;-56
2023/03/03 05:16:52;;;;;;;;;;;;;;;25.01;37.92;94224.19;4973440;28;9042;-55
2023/03/03 05:19:28;;;;;;;;;;;;;;;24.98;37.49;94222.44;4973443;28;7504;-56
2023/03/03 05:21:54;;;;;;;;;;;;;;;25.02;37.82;94226.41;4970497;28;9038;-55
2023/03/03 05:24:23;;;;;;;;;;;;;;;25.00;37.96;94223.44;4972390;28;9048;-56
2023/03/03 05:26:51;;;;;;;;;;;;;;;25.01;37.63;94219.41;4971103;28;7872;-56
2023/03/03 05:29:19;;;;;;;;;;;;;;;25.03;38.07;94218.91;4968339;28;6856;-56
2023/03/03 05:31:53;;;;;;;;;;;;;;;25.03;37.61;94224.41;4970860;28;7224;-56
2023/03/03 05:34:19;;;;;;;;;;;;;;;25.02;37.83;94215.41;4961169;28;7146;-64
2023/03/03 05:36:45;;;;;;;;;;;;;;;24.97;37.92;94213.44;4965449;28;8249;-64
2023/03/03 05:39:11;;;;;;;;;;;;;;;25.04;37.84;94223.16;4966679;28;9083;-64
2023/03/03 05:41:43;;;;;;;;;;;;;;;25.03;38.13;94221.66;4992027;28;7269;-64
2023/03/03 05:44:25;;;;;;;;;;;;;;;25.06;37.24;94234.38;4972321;28;7459;-64
2023/03/03 05:46:56;;;;;;;;;;;;;;;25.05;37.75;94230.91;4965220;28;9154;-64
2023/03/03 05:49:26;;;;;;;;;;;;;;;25.06;37.61;94237.88;4988346;28;9384;-63
2023/03/03 05:52:08;;;;;;;;;;;;;;;25.08;37.84;94237.38;4971678;28;9585;-63
2023/03/03 05:54:37;;;;;;;;;;;;;;;25.06;37.92;94229.63;4973057;28;7052;-64
2023/03/03 05:57:06;;;;;;;;;;;;;;;25.07;37.82;94231.16;4969302;28;7316;-65
2023/03/03 05:59:41;;;;;;;;;;;;;;;25.07;38.24;94233.91;4971325;28;7048;-63
2023/03/03 06:02:09;;;;;;;;;;;;;;;25.08;38.21;94245.63;4985110;28;7233;-64
2023/03/03 06:04:38;;;;;;;;;;;;;;;25.06;37.99;94239.88;4965155;28;9229;-63
2023/03/03 06:07:05;;;;;;;;;;;;;;;25.03;38.27;94236.19;4962677;28;6979;-64
2023/03/03 06:09:40;;;;;;;;;;;;;;;25.11;38.06;94247.38;4974004;28;7126;-64
2023/03/03 06:12:06;;;;;;;;;;;;;;;25.11;38.18;94250.13;4985686;28;7039;-64
2023/03/03 06:14:32;;;;;;;;;;;;;;;25.11;37.79;94252.88;4971067;28;8857;-64
2023/03/03 06:17:02;;;;;;;;;;;;;;;25.09;38.03;94261.66;4974467;28;7042;-64
2023/03/03 06:19:28;;;;;;;;;;;;;;;25.10;37.42;94260.38;4998021;28;7628;-64
2023/03/03 06:21:54;;;;;;;;;;;;;;;25.07;37.70;94252.41;4986323;28;9324;-64
2023/03/03 06:24:23;;;;;;;;;;;;;;;25.08;37.87;94262.13;4971455;28;7143;-64
2023/03/03 06:26:49;;;;;;;;;;;;;;;25.07;37.92;94258.66;4960571;28;9313;-64
2023/03/03 06:29:14;;;;;;;;;;;;;;;25.08;38.59;94257.38;4978534;28;9236;-64
2023/03/03 06:31:42;;;;;;;;;;;;;;;25.07;38.48;94260.66;4965694;28;9208;-64
2023/03/03 06:34:08;;;;;;;;;;;;;;;25.05;37.93;94260.44;4966623;28;7129;-64
2023/03/03 06:36:37;;;;;;;;;;;;;;;25.07;37.93;94272.41;4971647;28;7241;-64
2023/03/03 06:39:03;;;;;;;;;;;;;;;25.12;38.35;94262.63;4966542;28;9065;-64
2023/03/03 06:41:29;;;;;;;;;;;;;;;25.13;37.72;94272.38;4968631;28;9963;-64
2023/03/03 06:43:57;;;;;;;;;;;;;;;25.17;37.78;94272.84;4970619;28;7312;-64
2023/03/03 06:46:29;;;;;;;;;;;;;;;25.18;37.89;94266.09;4965528;28;8954;-64
2023/03/03 06:48:55;;;;;;;;;;;;;;;25.17;38.02;94272.84;4968825;28;9345;-64
2023/03/03 06:51:29;;;;;;;;;;;;;;;25.15;37.34;94278.88;4968856;28;7279;-64
2023/03/03 06:53:57;;;;;;;;;;;;;;;25.12;37.31;94279.16;4973448;28;9453;-64
2023/03/03 06:56:38;;;;;;;;;;;;;;;25.14;37.40;94287.63;4970625;28;7883;-65
2023/03/03 06:59:17;;;;;;;;;;;;;;;25.11;37.33;94294.91;4967475;28;9424;-64
2023/03/03 07:01:50;;;;;;;;;;;;;;;25.08;36.95;94284.16;4985629;28;9008;-64
2023/03/03 07:04:34;;;;;;;;;;;;;;;25.09;37.80;94285.66;4968524;28;8785;-64
2023/03/03 07:07:14;;;;;;;;;;;;;;;25.05;37.59;94294.19;4966049;28;9440;-64
2023/03/03 07:10:00;;;;;;;;;;;;;;;25.06;38.33;94301.19;4968373;28;9235;-55
2023/03/03 07:12:40;;;;;;;;;;;;;;;25.05;38.24;94302.47;4986727;28;7160;-55
2023/03/03 07:15:29;;;;;;;;;;;;;;;25.10;38.47;94309.19;4963184;28;9732;-55
2023/03/03 07:17:58;;;;;;;;;;;;;;;25.12;37.39;94312.91;4968264;28;7317;-56
2023/03/03 07:20:48;;;;;;;;;;;;;;;25.15;38.18;94305.63;4969258;28;7489;-56
2023/03/03 07:23:43;;;;;;;;;;;;;;;25.14;37.91;94304.16;4968182;28;9047;-55
2023/03/03 07:26:27;;;;;;;;;;;;;;;25.15;38.01;94311.13;4998588;28;8153;-55
2023/03/03 07:29:18;;;;;;;;;;;;;;;25.12;38.32;94312.91;4970222;28;9075;-55
2023/03/03 07:31:59;;;;;;;;;;;;;;;25.16;37.17;94318.16;4970602;28;7189;-56
2023/03/03 07:34:42;;;;;;;;;;;;;;;25.13;37.71;94319.16;4971818;28;7050;-56
2023/03/03 07:37:40;;;;;;;;;;;;;;;25.12;38.22;94320.44;4985152;28;9076;-55
2023/03/03 07:40:42;;;;;;;;;;;;;;;25.11;37.58;94324.44;4976542;28;7028;-56
2023/03/03 07:43:57;;;;;;;;;;;;;;;25.08;38.41;94328.94;4957581;28;7466;-55
2023/03/03 07:46:42;;;;;;;;;;;;;;;25.06;38.33;94331.44;4975487;28;9189;-55
2023/03/03 07:49:43;;;;;;;;;;;;;;;25.06;38.39;94330.69;4966898;28;9521;-53
2023/03/03 07:52:57;;;;;;;;;;;;;;;25.06;38.72;94330.69;4900220;29;7652;-55
2023/03/03 07:55:36;;;;;;;;;;;;;;;25.07;38.25;94335.72;4886096;29;7640;-55
2023/03/03 07:58:38;;;;;;;;;;;;;;;25.07;38.96;94335.72;4861976;29;7829;-56
2023/03/03 08:01:48;;;;;;;;;;;;;;;25.09;38.91;94340.69;4806092;29;7201;-56
2023/03/03 08:04:21;;;;;;;;;;;;;;;25.13;37.85;94346.69;4809093;29;7056;-55
2023/03/03 08:07:03;;;;;;;;;;;;;;;25.11;38.34;94343.69;4814093;29;7222;-55
2023/03/03 08:09:58;;;;;;;;;;;;;;;25.10;38.77;94350.47;4819013;29;7525;-55
2023/03/03 08:12:40;;;;;;;;;;;;;;;25.10;38.82;94347.72;4738070;30;8076;-56
2023/03/03 08:15:26;;;;;;;;;;;;;;;25.09;38.77;94346.97;4753820;30;7241;-56
2023/03/03 08:17:55;;;;;;;;;;;;;;;25.07;38.16;94338.47;4749623;30;7250;-56
2023/03/03 08:20:52;;;;;;;;;;;;;;;25.09;38.00;94346.97;4749720;30;9105;-55
2023/03/03 08:23:20;;;;;;;;;;;;;;;25.07;38.65;94343.97;4762752;30;8789;-54
2023/03/03 08:25:49;;;;;;;;;;;;;;;25.07;38.91;94348.72;4774471;29;9243;-55
2023/03/03 08:28:16;;;;;;;;;;;;;;;25.05;38.62;94342.97;4822389;29;7249;-56
2023/03/03 08:31:12;;;;;;;;;;;;;;;25.08;38.06;94350.19;4823896;29;8877;-55
2023/03/03 08:33:38;;;;;;;;;;;;;;;25.07;39.10;94349.47;4819884;29;7170;-54
2023/03/03 08:36:06;;;;;;;;;;;;;;;25.08;38.63;94344.69;4806745;29;8980;-54
2023/03/03 08:38:33;;;;;;;;;;;;;;;25.03;38.37;94342.75;4854621;29;6989;-55
2023/03/03 08:41:02;;;;;;;;;;;;;;;25.06;38.63;94342.47;4850403;29;7037;-55
2023/03/03 08:43:57;;;;;;;;;;;;;;;25.05;38.45;94343.72;4844516;29;7277;-55
2023/03/03 08:46:27;;;;;;;;;;;;;;;25.03;38.56;94345.50;4878508;29;7086;-55
2023/03/03 08:49:04;;;;;;;;;;;;;;;25.03;39.14;94337.25;4877266;29;7033;-54
2023/03/03 08:51:41;;;;;;;;;;;;;;;25.02;39.03;94333.72;4900586;29;8912;-55
2023/03/03 08:54:08;;;;;;;;;;;;;;;25.06;38.40;94349.97;4904897;29;7283;-55
2023/03/03 08:56:34;;;;;;;;;;;;;;;25.05;38.97;94345.72;4894288;29;7315;-56
2023/03/03 08:59:01;;;;;;;;;;;;;;;25.05;39.13;94337.47;4908162;29;7027;-54
2023/03/03 09:01:57;;;;;;;;;;;;;;;25.08;38.44;94350.19;4894903;29;9032;-55
2023/03/03 09:04:23;;;;;;;;;;;;;;;25.08;39.11;94356.47;4858983;29;7040;-55
2023/03/03 09:06:49;;;;;;;;;;;;;;;25.08;38.67;94344.69;4843913;29;8387;-55
2023/03/03 09:09:24;;;;;;;;;;;;;;;25.08;38.70;94348.19;4841808;29;9719;-55
2023/03/03 09:12:28;;;;;;;;;;;;;;;25.07;38.80;94351.47;4862506;29;7294;-55
2023/03/03 09:14:59;;;;;;;;;;;;;;;25.07;38.06;94348.72;4880557;29;8934;-55
2023/03/03 09:17:41;;;;;;;;;;;;;;;25.06;38.87;94347.22;4880382;29;7223;-55
2023/03/03 09:20:39;;;;;;;;;;;;;;;25.06;38.86;94344.47;4880915;29;7037;-55
2023/03/03 09:23:27;;;;;;;;;;;;;;;25.08;38.38;94347.44;4869289;29;7512;-53
2023/03/03 09:26:21;;;;;;;;;;;;;;;25.08;38.46;94353.72;4896350;29;8178;-55
2023/03/03 09:28:51;;;;;;;;;;;;;;;25.07;38.20;94352.22;4875030;29;7611;-55
2023/03/03 09:31:43;;;;;;;;;;;;;;;25.10;38.81;94362.19;4893521;29;7248;-55
2023/03/03 09:34:22;;;;;;;;;;;;;;;25.10;38.78;94366.97;4895562;29;8905;-55
2023/03/03 09:36:54;;;;;;;;;;;;;;;25.09;38.64;94368.97;4884054;29;7033;-56
2023/03/03 09:39:24;;;;;;;;;;;;;;;25.10;37.99;94369.72;4874100;29;7335;-55
2023/03/03 09:42:37;;;;;;;;;;;;;;;25.11;38.64;94379.47;4969273;28;9605;-55
2023/03/03 09:45:31;;;;;;;;;;;;;;;25.11;38.49;94374.72;4925913;29;9118;-55
2023/03/03 09:48:17;;;;;;;;;;;;;;;25.11;38.52;94371.97;4917558;29;9030;-55
2023/03/03 09:51:01;;;;;;;;;;;;;;;25.13;38.52;94374.97;4915838;29;7648;-55
2023/03/03 09:54:03;;;;;;;;;;;;;;;25.12;38.96;94375.47;4919560;29;7053;-56
2023/03/03 09:56:52;;;;;;;;;;;;;;;25.11;38.24;94371.22;4912154;29;9022;-55
2023/03/03 09:59:24;;;;;;;;;;;;;;;25.12;39.02;94364.47;4930746;28;7133;-64
2023/03/03 10:01:59;;;;;;;;;;;;;;;25.12;38.12;94367.94;4925159;28;6991;-63
2023/03/03 10:04:33;;;;;;;;;;;;;;;25.12;38.13;94365.19;4930859;29;7301;-63
2023/03/03 10:07:26;;;;;;;;;;;;;;;25.12;38.16;94362.44;4946186;28;7050;-64
2023/03/03 10:10:31;;;;;;;;;;;;;;;25.11;38.08;94360.97;4946603;28;9171;-64
2023/03/03 10:13:25;;;;;;;;;;;;;;;25.11;38.18;94355.44;4932292;28;7163;-63
2023/03/03 10:16:11;;;;;;;;;;;;;;;25.11;39.04;94366.47;4913645;29;7532;-64
2023/03/03 10:18:56;;;;;;;;;;;;;;;25.11;38.29;94365.72;4935455;28;9020;-63
2023/03/03 10:21:48;;;;;;;;;;;;;;;25.11;39.05;94360.97;4966893;28;8215;-64
2023/03/03 10:24:30;;;;;;;;;;;;;;;25.11;38.68;94355.44;4986746;28;9118;-63
2023/03/03 10:27:18;;;;;;;;;;;;;;;25.11;38.72;94360.19;4971752;28;7101;-63
2023/03/03 10:29:43;;;;;;;;;;;;;;;25.13;38.92;94352.94;4967178;28;7057;-63
2023/03/03 10:32:35;;;;;;;;;;;;;;;25.17;38.85;94352.66;4970790;28;7041;-63
2023/03/03 10:35:28;;;;;;;;;;;;;;;25.16;38.15;94359.44;4959927;28;9463;-63
2023/03/03 10:38:17;;;;;;;;;;;;;;;25.15;38.78;94355.19;4993402;28;6855;-64
2023/03/03 10:41:06;;;;;;;;;;;;;;;25.15;38.10;94352.41;4966489;28;8701;-64
2023/03/03 10:43:44;;;;;;;;;;;;;;;25.16;37.92;94356.69;4970250;28;9051;-64
2023/03/03 10:46:43;;;;;;;;;;;;;;;25.15;38.78;94353.19;4971368;28;7047;-64
2023/03/03 10:49:38;;;;;;;;;;;;;;;25.18;38.01;94359.69;4971570;28;7448;-64
2023/03/03 10:52:48;;;;;;;;;;;;;;;25.16;38.71;94362.19;4955412;28;9038;-64
2023/03/03 10:55:34;;;;;;;;;;;;;;;25.15;38.57;94364.19;4970650;28;7142;-62
2023/03/03 10:58:51;;;;;;;;;;;;;;;25.17;38.16;94363.66;4955661;28;7969;-62
2023/03/03 11:01:29;;;;;;;;;;;;;;;25.17;39.60;94369.16;4907163;29;7202;-62
2023/03/03 11:04:40;;;;;;;;;;;;;;;25.18;38.58;94370.69;4912705;29;7049;-62
2023/03/03 11:07:25;;;;;;;;;;;;;;;25.20;39.11;94368.16;4911482;29;9520;-61
2023/03/03 11:10:13;;;;;;;;;;;;;;;25.19;40.48;94366.66;4923302;29;9004;-62
2023/03/03 11:13:17;;;;;;;;;;;;;;;25.20;40.65;94368.91;4899628;29;7292;-62
2023/03/03 11:16:06;;;;;;;;;;;;;;;25.21;40.43;94369.66;4928116;29;9105;-62
2023/03/03 11:18:43;;;;;;;;;;;;;;;25.22;40.28;94376.66;4919450;29;8809;-62
2023/03/03 11:21:40;;;;;;;;;;;;;;;25.22;40.66;94374.66;4900132;29;8143;-62
2023/03/03 11:24:32;;;;;;;;;;;;;;;25.25;40.48;94370.16;4926751;29;7465;-62
2023/03/03 11:27:21;;;;;;;;;;;;;;;25.25;40.21;94365.38;4923766;28;7049;-62
2023/03/03 11:30:34;;;;;;;;;;;;;;;25.24;39.98;94374.16;4911107;29;7268;-61
2023/03/03 11:33:04;;;;;;;;;;;;;;;25.24;40.39;94369.41;4911182;29;9364;-62
2023/03/03 11:35:51;;;;;;;;;;;;;;;25.26;39.76;94371.63;4915260;29;9044;-62
2023/03/03 11:38:49;;;;;;;;;;;;;;;25.26;39.72;94366.13;4969277;28;9198;-62
2023/03/03 11:41:34;;;;;;;;;;;;;;;25.25;40.09;94364.66;4961729;28;8534;-62
2023/03/03 11:44:27;;;;;;;;;;;;;;;25.28;39.46;94369.13;4965166;28;7336;-62
2023/03/03 11:47:17;;;;;;;;;;;;;;;25.27;39.84;94362.13;4956875;28;8725;-62
2023/03/03 11:50:02;;;;;;;;;;;;;;;25.27;39.42;94362.84;4967176;28;7278;-61
2023/03/03 11:52:59;;;;;;;;;;;;;;;25.26;40.24;94360.63;4984647;28;9215;-63
2023/03/03 11:55:36;;;;;;;;;;;;;;;25.29;40.18;94362.38;4968228;28;7142;-62
2023/03/03 11:58:16;;;;;;;;;;;;;;;25.29;40.10;94354.09;4969574;28;9056;-61
2023/03/03 12:00:58;;;;;;;;;;;;;;;25.29;40.09;94345.84;4960364;28;8715;-62
2023/03/03 12:03:25;;;;;;;;;;;;;;;25.30;39.57;94344.56;4987945;28;9501;-62
2023/03/03 12:06:17;;;;;;;;;;;;;;;25.35;38.86;94328.03;4973657;28;7220;-61
2023/03/03 12:09:26;;;;;;;;;;;;;;;25.37;39.08;94336.53;4982088;28;6860;-61
2023/03/03 12:12:01;;;;;;;;;;;;;;;25.34;39.24;94339.53;4982887;28;7055;-62
2023/03/03 12:14:55;;;;;;;;;;;;;;;25.34;39.50;94336.78;5001210;28;7137;-61
2023/03/03 12:17:55;;;;;;;;;;;;;;;25.35;39.82;94332.78;4973785;28;7975;-61
2023/03/03 12:20:33;;;;;;;;;;;;;;;25.35;38.98;94338.28;4970862;28;9082;-61
2023/03/03 12:23:18;;;;;;;;;;;;;;;25.33;38.70;94335.31;4970333;28;7071;-62
2023/03/03 12:26:04;;;;;;;;;;;;;;;25.42;39.29;94329.53;4995038;28;7307;-62
2023/03/03 12:29:27;;;;;;;;;;;;;;;25.40;39.12;94323.75;4980974;28;8062;-62
2023/03/03 12:32:31;;;;;;;;;;;;;;;25.40;39.14;94321.00;4946258;28;9042;-61
2023/03/03 12:35:40;;;;;;;;;;;;;;;25.41;39.37;94322.47;4963483;28;7340;-62
2023/03/03 12:38:57;;;;;;;;;;;;;;;25.42;39.55;94310.97;4938269;28;7077;-62
2023/03/03 12:41:45;;;;;;;;;;;;;;;25.39;39.23;94320.25;4934369;28;6997;-62
2023/03/03 12:45:00;;;;;;;;;;;;;;;25.44;38.57;94321.50;4945646;28;9104;-62
2023/03/03 12:47:50;;;;;;;;;;;;;;;25.41;39.47;94316.97;4881390;29;6967;-62
2023/03/03 12:50:54;;;;;;;;;;;;;;;25.45;39.34;94311.97;4878828;29;7063;-62
2023/03/03 12:53:50;;;;;;;;;;;;;;;25.45;38.48;94314.72;4876207;29;9154;-63
2023/03/03 12:56:50;;;;;;;;;;;;;;;25.51;39.43;94309.19;4884788;29;6993;-62
2023/03/03 12:59:39;;;;;;;;;;;;;;;25.51;38.76;94309.94;4846662;29;7483;-62
2023/03/03 13:02:24;;;;;;;;;;;;;;;25.56;38.19;94305.63;4844499;29;7133;-62
2023/03/03 13:05:19;;;;;;;;;;;;;;;25.56;38.80;94309.13;4841762;29;7018;-62
2023/03/03 13:08:30;;;;;;;;;;;;;;;25.56;39.06;94298.13;4844033;29;7278;-62
2023/03/03 13:11:11;;;;;;;;;;;;;;;25.60;38.03;94306.84;4841710;29;8720;-62
2023/03/03 13:13:44;;;;;;;;;;;;;;;25.61;38.50;94302.84;4857226;29;9461;-62
2023/03/03 13:16:14;;;;;;;;;;;;;;;25.66;38.66;94298.56;4858822;29;9268;-61
2023/03/03 13:19:08;;;;;;;;;;;;;;;25.71;38.94;94297.75;4884330;29;6997;-62
2023/03/03 13:22:14;;;;;;;;;;;;;;;25.70;38.15;94297.00;4902811;29;9416;-62
2023/03/03 13:24:48;;;;;;;;;;;;;;;25.70;38.92;94294.25;4841481;29;7285;-62
2023/03/03 13:27:22;;;;;;;;;;;;;;;25.70;38.51;94299.00;4859702;29;7375;-62
2023/03/03 13:30:43;;;;;;;;;;;;;;;25.73;38.91;94298.00;4859049;29;8928;-62
2023/03/03 13:33:40;;;;;;;;;;;;;;;25.70;38.24;94302.53;4859535;29;9112;-62
2023/03/03 13:36:12;;;;;;;;;;;;;;;25.71;38.96;94301.25;4894184;29;8740;-62
2023/03/03 13:39:20;;;;;;;;;;;;;;;25.70;37.97;94297.00;4914893;29;8213;-62
2023/03/03 13:42:33;;;;;;;;;;;;;;;25.70;38.62;94294.25;4840557;29;9367;-62
2023/03/03 13:45:23;;;;;;;;;;;;;;;25.70;38.00;94294.25;4840104;29;9010;-62
2023/03/03 13:48:07;;;;;;;;;;;;;;;25.71;38.25;94298.50;4851949;29;9316;-62
2023/03/03 13:51:03;;;;;;;;;;;;;;;25.72;38.32;94297.25;4843472;29;7040;-62
2023/03/03 13:53:49;;;;;;;;;;;;;;;25.76;38.49;94292.19;4844441;29;9198;-62
2023/03/03 13:56:34;;;;;;;;;;;;;;;25.74;38.17;94291.97;4843793;29;9060;-61
2023/03/03 13:59:06;;;;;;;;;;;;;;;25.81;37.89;94296.91;4854715;29;7192;-62
2023/03/03 14:02:11;;;;;;;;;;;;;;;25.85;38.24;94293.88;4874025;29;7036;-62
2023/03/03 14:04:46;;;;;;;;;;;;;;;25.83;36.80;94294.41;4864439;29;7229;-62
2023/03/03 14:07:26;;;;;;;;;;;;;;;25.81;36.26;94291.41;4869385;29;7397;-62
2023/03/03 14:10:11;;;;;;;;;;;;;;;25.82;36.18;94292.13;4855898;29;9168;-62